createdAt,value
2022-11-18T00:00:19.031Z,4.55
2022-11-18T00:04:41.089Z,4.78
2022-11-18T00:09:03.398Z,5.25
2022-11-18T00:13:44.443Z,4.78
2022-11-18T00:18:06.321Z,5.15
2022-11-18T00:22:29.984Z,4.75
2022-11-18T00:26:52.368Z,5.20
2022-11-18T00:31:14.871Z,4.93
2022-11-18T00:35:36.790Z,5.03
2022-11-18T00:39:58.679Z,5.28
2022-11-18T00:44:20.647Z,4.63
2022-11-18T00:48:42.699Z,5.25
2022-11-18T00:53:04.493Z,5.68
2022-11-18T00:57:26.442Z,5.82
2022-11-18T01:01:49.277Z,5.93
2022-11-18T01:06:11.146Z,5.40
2022-11-18T01:10:33.216Z,5.25
2022-11-18T01:14:54.968Z,5.68
2022-11-18T01:19:19.613Z,5.45
2022-11-18T01:23:42.187Z,5.50
2022-11-18T01:28:05.318Z,5.32
2022-11-18T01:32:29.130Z,5.75
2022-11-18T01:36:53.179Z,6.05
2022-11-18T01:41:15.854Z,5.38
2022-11-18T01:45:43.536Z,5.47
2022-11-18T01:50:06.957Z,5.13
2022-11-18T01:54:36.130Z,4.93
2022-11-18T01:59:04.563Z,5.10
2022-11-18T02:03:27.873Z,5.93
2022-11-18T02:07:49.989Z,5.20
2022-11-18T02:12:13.122Z,5.53
2022-11-18T02:16:45.216Z,5.80
2022-11-18T02:21:49.314Z,6.55
2022-11-18T02:26:59.236Z,5.88
2022-11-18T02:31:47.660Z,6.68
2022-11-18T02:36:20.631Z,6.50
2022-11-18T02:40:52.931Z,6.65
2022-11-18T02:45:19.164Z,6.63
2022-11-18T02:49:55.997Z,8.73
2022-11-18T02:54:20.895Z,9.43
2022-11-18T02:58:42.971Z,8.88
2022-11-18T03:03:25.870Z,8.05
2022-11-18T03:07:55.584Z,7.68
2022-11-18T03:12:40.230Z,7.82
2022-11-18T03:17:21.990Z,7.10
2022-11-18T03:22:14.273Z,7.28
2022-11-18T03:26:44.367Z,14.15
2022-11-18T03:31:25.085Z,9.30
2022-11-18T03:35:50.176Z,7.80
2022-11-18T03:40:31.665Z,8.57
2022-11-18T03:45:10.210Z,14.68
2022-11-18T03:49:46.449Z,10.27
2022-11-18T03:54:19.163Z,8.57
2022-11-18T03:58:58.498Z,10.15
2022-11-18T04:03:20.541Z,8.43
2022-11-18T04:07:48.928Z,9.27
2022-11-18T04:12:17.885Z,9.10
2022-11-18T04:16:45.133Z,12.35
2022-11-18T04:21:07.228Z,13.82
2022-11-18T04:25:28.985Z,9.85
2022-11-18T04:29:51.042Z,16.10
2022-11-18T04:34:13.128Z,9.63
2022-11-18T04:38:35.124Z,9.00
2022-11-18T04:42:58.074Z,9.27
2022-11-18T04:47:20.045Z,11.60
2022-11-18T04:51:43.552Z,9.88
2022-11-18T04:56:08.994Z,10.27
2022-11-18T05:00:30.684Z,10.88
2022-11-18T05:04:52.665Z,10.07
2022-11-18T05:09:15.649Z,9.38
2022-11-18T05:13:38.172Z,9.15
2022-11-18T05:18:00.212Z,9.50
2022-11-18T05:22:22.054Z,10.27
2022-11-18T05:26:44.405Z,9.82
2022-11-18T05:31:13.462Z,9.90
2022-11-18T05:35:37.504Z,9.68
2022-11-18T05:39:59.554Z,10.45
2022-11-18T05:44:21.399Z,12.57
2022-11-18T05:48:43.494Z,11.88
2022-11-18T05:53:09.122Z,11.98
2022-11-18T05:57:32.255Z,11.02
2022-11-18T06:02:14.646Z,12.05
2022-11-18T06:06:36.853Z,11.40
2022-11-18T06:10:59.457Z,10.32
2022-11-18T06:15:33.839Z,12.65
2022-11-18T06:19:56.982Z,14.82
2022-11-18T06:24:19.274Z,15.45
2022-11-18T06:28:41.911Z,17.95
2022-11-18T06:33:03.869Z,18.88
2022-11-18T06:37:25.622Z,20.20
2022-11-18T06:41:47.474Z,23.27
2022-11-18T06:46:32.501Z,23.17
2022-11-18T06:50:54.523Z,22.33
2022-11-18T06:55:16.528Z,24.63
2022-11-18T06:59:38.411Z,23.25
2022-11-18T07:04:01.483Z,20.95
2022-11-18T07:08:23.426Z,19.60
2022-11-18T07:12:45.399Z,18.50
2022-11-18T07:17:07.375Z,16.95
2022-11-18T07:21:29.808Z,16.23
2022-11-18T07:25:55.875Z,14.45
2022-11-18T07:30:18.198Z,13.25
2022-11-18T07:34:40.226Z,12.45
2022-11-18T07:39:03.496Z,14.38
2022-11-18T07:43:25.158Z,14.23
2022-11-18T07:47:47.061Z,13.85
2022-11-18T07:52:09.213Z,15.30
2022-11-18T07:56:31.096Z,18.80
2022-11-18T08:00:52.984Z,20.33
2022-11-18T08:05:18.069Z,22.15
2022-11-18T08:09:40.209Z,20.27
2022-11-18T08:14:02.367Z,20.48
2022-11-18T08:18:24.874Z,20.48
2022-11-18T08:22:46.467Z,19.25
2022-11-18T08:27:08.355Z,18.33
2022-11-18T08:31:31.638Z,17.13
2022-11-18T08:35:53.407Z,15.73
2022-11-18T08:40:15.707Z,15.82
2022-11-18T08:44:37.601Z,16.15
2022-11-18T08:48:59.707Z,15.00
2022-11-18T08:53:21.775Z,16.15
2022-11-18T08:57:43.553Z,16.60
2022-11-18T09:02:05.567Z,16.48
2022-11-18T09:06:27.698Z,17.00
2022-11-18T09:10:49.732Z,16.65
2022-11-18T09:15:13.853Z,17.33
2022-11-18T09:19:51.811Z,16.65
2022-11-18T09:24:13.640Z,17.45
2022-11-18T09:28:36.255Z,16.60
2022-11-18T09:32:58.308Z,17.77
2022-11-18T09:37:20.541Z,16.17
2022-11-18T09:42:28.153Z,15.52
2022-11-18T09:47:33.789Z,16.30
2022-11-18T09:51:57.343Z,16.25
2022-11-18T09:56:20.326Z,17.42
2022-11-18T10:00:43.317Z,16.33
2022-11-18T10:05:24.328Z,17.35
2022-11-18T10:09:50.461Z,16.60
2022-11-18T10:14:33.849Z,17.83
2022-11-18T10:19:34.272Z,19.30
2022-11-18T10:24:27.084Z,18.80
2022-11-18T10:28:48.855Z,21.83
2022-11-18T10:33:27.045Z,20.90
2022-11-18T10:38:14.894Z,20.95
2022-11-18T10:42:43.068Z,19.83
2022-11-18T10:47:24.265Z,21.33
2022-11-18T10:52:11.246Z,21.42
2022-11-18T10:56:58.497Z,22.52
2022-11-18T11:01:25.400Z,23.17
2022-11-18T11:05:47.226Z,24.90
2022-11-18T11:10:22.841Z,23.00
2022-11-18T11:14:58.316Z,26.13
2022-11-18T11:19:24.552Z,23.65
2022-11-18T11:23:47.048Z,23.35
2022-11-18T11:28:43.363Z,24.25
2022-11-18T11:33:31.089Z,22.70
2022-11-18T11:38:00.848Z,22.23
2022-11-18T11:42:58.644Z,19.35
2022-11-18T11:47:47.514Z,19.40
2022-11-18T11:52:29.835Z,19.38
2022-11-18T11:57:06.223Z,15.77
2022-11-18T12:01:47.314Z,16.33
2022-11-18T12:06:12.732Z,17.98
2022-11-18T12:10:59.088Z,17.67
2022-11-18T12:15:32.044Z,17.98
2022-11-18T12:19:54.091Z,17.85
2022-11-18T12:24:31.439Z,19.00
2022-11-18T12:28:53.281Z,19.33
2022-11-18T12:33:18.254Z,16.48
2022-11-18T12:37:44.361Z,15.85
2022-11-18T12:42:47.751Z,15.32
2022-11-18T12:47:12.657Z,15.02
2022-11-18T12:51:41.865Z,13.13
2022-11-18T12:56:36.985Z,12.43
2022-11-18T13:01:12.531Z,11.98
2022-11-18T13:05:36.480Z,11.02
2022-11-18T13:09:58.819Z,10.60
2022-11-18T13:14:49.232Z,10.07
2022-11-18T13:19:24.950Z,10.50
2022-11-18T13:23:59.347Z,13.10
2022-11-18T13:28:50.143Z,13.95
2022-11-18T13:33:12.340Z,13.65
2022-11-18T13:37:34.438Z,14.27
2022-11-18T13:42:19.194Z,13.95
2022-11-18T13:46:43.015Z,14.82
2022-11-18T13:51:05.215Z,15.60
2022-11-18T13:55:43.973Z,13.75
2022-11-18T14:00:19.582Z,16.17
2022-11-18T14:04:57.044Z,20.13
2022-11-18T14:09:29.966Z,22.45
2022-11-18T14:13:54.841Z,24.95
2022-11-18T14:18:37.181Z,23.50
2022-11-18T14:23:05.603Z,24.95
2022-11-18T14:27:37.497Z,23.20
2022-11-18T14:32:10.978Z,21.13
2022-11-18T14:36:32.774Z,25.95
2022-11-18T14:41:01.366Z,24.90
2022-11-18T14:45:24.272Z,26.83
2022-11-18T14:49:46.341Z,24.02
2022-11-18T14:54:14.055Z,26.60
2022-11-18T14:58:35.734Z,25.40
2022-11-18T15:02:57.576Z,24.92
2022-11-18T15:07:23.680Z,23.95
2022-11-18T15:11:46.250Z,25.90
2022-11-18T15:16:26.355Z,26.23
2022-11-18T15:20:48.886Z,26.83
2022-11-18T15:25:10.950Z,27.15
2022-11-18T15:29:32.940Z,28.25
2022-11-18T15:33:54.844Z,27.00
2022-11-18T15:38:16.881Z,32.08
2022-11-18T15:42:47.499Z,32.85
2022-11-18T15:47:14.206Z,36.30
2022-11-18T15:51:36.252Z,37.30
2022-11-18T15:56:23.204Z,35.97
2022-11-18T16:00:45.417Z,35.53
2022-11-18T16:05:08.004Z,36.58
2022-11-18T16:09:51.464Z,36.15
2022-11-18T16:14:15.127Z,36.88
2022-11-18T16:18:40.619Z,39.90
2022-11-18T16:23:02.787Z,36.95
2022-11-18T16:27:24.766Z,37.88
2022-11-18T16:31:52.864Z,36.58
2022-11-18T16:36:15.038Z,36.85
2022-11-18T16:40:37.399Z,38.75
2022-11-18T16:45:00.366Z,40.75
2022-11-18T16:49:26.079Z,37.10
2022-11-18T16:54:03.646Z,36.65
2022-11-18T16:58:25.518Z,41.38
2022-11-18T17:02:47.452Z,40.53
2022-11-18T17:07:09.905Z,41.30
2022-11-18T17:11:32.779Z,39.78
2022-11-18T17:15:54.333Z,41.92
2022-11-18T17:20:16.614Z,41.05
2022-11-18T17:24:38.445Z,44.55
2022-11-18T17:29:01.017Z,43.55
2022-11-18T17:33:23.612Z,40.08
2022-11-18T17:37:46.073Z,39.03
2022-11-18T17:42:14.061Z,41.38
2022-11-18T17:46:38.478Z,38.88
2022-11-18T17:51:05.416Z,37.70
2022-11-18T17:55:27.256Z,38.55
2022-11-18T17:59:49.389Z,38.00
2022-11-18T18:04:14.552Z,35.20
2022-11-18T18:08:37.011Z,36.50
2022-11-18T18:13:17.476Z,35.60
2022-11-18T18:17:39.303Z,33.80
2022-11-18T18:22:01.275Z,33.40
2022-11-18T18:26:28.286Z,34.50
2022-11-18T18:31:01.204Z,34.45
2022-11-18T18:35:23.251Z,35.78
2022-11-18T18:39:46.688Z,36.80
2022-11-18T18:44:11.346Z,32.58
2022-11-18T18:48:35.748Z,30.48
2022-11-18T18:52:57.455Z,32.40
2022-11-18T18:57:19.320Z,34.10
2022-11-18T19:01:41.490Z,31.33
2022-11-18T19:11:38.073Z,32.92
2022-11-18T19:16:06.373Z,27.67
2022-11-18T19:20:34.130Z,34.38
2022-11-18T19:24:56.473Z,33.03
2022-11-18T19:29:24.274Z,33.88
2022-11-18T19:33:47.956Z,32.63
2022-11-18T19:38:10.102Z,33.22
2022-11-18T19:42:33.406Z,33.33
2022-11-18T19:46:55.739Z,30.38
2022-11-18T19:51:18.646Z,29.58
2022-11-18T19:55:40.490Z,28.52
2022-11-18T20:00:02.704Z,28.10
2022-11-18T20:04:31.105Z,27.23
2022-11-18T20:08:54.806Z,26.33
2022-11-18T20:13:17.213Z,26.83
2022-11-18T20:17:39.424Z,25.88
2022-11-18T20:22:01.313Z,23.83
2022-11-18T20:26:26.927Z,27.45
2022-11-18T20:30:55.134Z,23.38
2022-11-18T20:35:17.172Z,23.75
2022-11-18T20:39:39.172Z,21.13
2022-11-18T20:44:01.424Z,19.80
2022-11-18T20:48:23.724Z,18.92
2022-11-18T20:52:45.720Z,19.13
2022-11-18T20:57:07.542Z,18.10
2022-11-18T21:01:30.222Z,15.45
2022-11-18T21:05:51.935Z,16.10
2022-11-18T21:10:13.675Z,13.90
2022-11-18T21:14:35.697Z,13.85
2022-11-18T21:18:57.631Z,13.75
2022-11-18T21:23:19.546Z,12.52
2022-11-18T21:27:41.376Z,12.02
2022-11-18T21:32:03.193Z,13.32
2022-11-18T21:36:27.298Z,12.17
2022-11-18T21:40:48.920Z,12.55
2022-11-18T21:45:11.101Z,12.43
2022-11-18T21:49:32.892Z,12.25
2022-11-18T21:53:54.932Z,11.35
2022-11-18T21:58:16.672Z,12.68
2022-11-18T22:02:38.702Z,11.50
2022-11-18T22:07:00.593Z,11.93
2022-11-18T22:11:22.742Z,15.60
2022-11-18T22:16:03.555Z,12.18
2022-11-18T22:20:27.932Z,11.20
2022-11-18T22:24:50.091Z,11.38
2022-11-18T22:29:11.809Z,11.13
2022-11-18T22:33:34.403Z,11.40
2022-11-18T22:37:59.412Z,12.60
2022-11-18T22:42:39.830Z,11.80
2022-11-18T22:47:01.660Z,11.68
2022-11-18T22:51:23.757Z,12.52
2022-11-18T22:55:45.765Z,11.57
2022-11-18T23:00:09.569Z,12.82
2022-11-18T23:04:31.409Z,12.02
2022-11-18T23:08:53.402Z,11.70
2022-11-18T23:13:34.137Z,12.50
2022-11-18T23:17:55.790Z,12.07
2022-11-18T23:22:17.927Z,13.55
2022-11-18T23:26:39.941Z,11.52
2022-11-18T23:31:09.977Z,11.48
2022-11-18T23:35:31.809Z,11.95
2022-11-18T23:39:53.722Z,10.10
2022-11-18T23:44:15.697Z,12.48
2022-11-18T23:48:39.702Z,11.80
2022-11-18T23:53:01.739Z,11.90
2022-11-18T23:57:23.628Z,12.07
